Time;durP1;ratioP1;P1;durP2;ratioP2;P2;SDS_P1;SDS_P2;PMS_P1;PMS_P2;Temp;Humidity;BMP_temperature;BMP_pressure;BME280_temperature;BME280_humidity;BME280_pressure;Samples;Min_cycle;Max_cycle;Signal;HPM_P1;HPM_P2
2021/02/04 00:00:47;;;;;;;2.1;0.9;;;;;;;7.79;100;94432.48;;;;
2021/02/04 00:01:48;;;;;;;2.1;0.9;;;;;;;7.79;100;94432.48;;;;
2021/02/04 00:02:49;;;;;;;2.1;0.9;;;;;;;7.79;100;94432.48;;;;
2021/02/04 00:03:51;;;;;;;2.1;0.9;;;;;;;7.79;100;94432.48;;;;
2021/02/04 00:04:53;;;;;;;2.1;0.9;;;;;;;7.79;100;94432.48;;;;
2021/02/04 00:05:54;;;;;;;2.1;0.9;;;;;;;7.79;100;94432.48;;;;
2021/02/04 00:06:54;;;;;;;2.1;0.9;;;;;;;7.79;100;94432.48;;;;
2021/02/04 00:07:56;;;;;;;0.95;0.8;;;;;;;7.84;100;94466.16;;;;
2021/02/04 00:08:57;;;;;;;0.95;0.8;;;;;;;7.84;100;94466.16;;;;
2021/02/04 00:09:59;;;;;;;0.95;0.8;;;;;;;7.84;100;94466.16;;;;
2021/02/04 00:11:00;;;;;;;0.95;0.8;;;;;;;7.84;100;94466.16;;;;
2021/02/04 00:12:00;;;;;;;0.95;0.8;;;;;;;7.84;100;94466.16;;;;
2021/02/04 00:13:01;;;;;;;0.95;0.8;;;;;;;7.84;100;94466.16;;;;
2021/02/04 00:14:05;;;;;;;0.95;0.8;;;;;;;7.84;100;94466.16;;;;
2021/02/04 00:15:07;;;;;;;0.95;0.8;;;;;;;7.84;100;94466.16;;;;
2021/02/04 00:16:09;;;;;;;0.95;0.8;;;;;;;7.84;100;94466.16;;;;
2021/02/04 00:17:09;;;;;;;0.95;0.8;;;;;;;7.84;100;94466.16;;;;
2021/02/04 00:18:10;;;;;;;0.95;0.8;;;;;;;7.84;100;94466.16;;;;
2021/02/04 00:19:10;;;;;;;1.15;0.85;;;;;;;7.93;100;94491.47;;;;
2021/02/04 00:20:12;;;;;;;1.15;0.85;;;;;;;7.93;100;94491.47;;;;
2021/02/04 00:21:15;;;;;;;1.15;0.85;;;;;;;7.93;100;94491.47;;;;
2021/02/04 00:22:15;;;;;;;1.15;0.85;;;;;;;7.93;100;94491.47;;;;
2021/02/04 00:23:16;;;;;;;1.15;0.85;;;;;;;7.93;100;94491.47;;;;
2021/02/04 00:24:16;;;;;;;1.15;0.85;;;;;;;7.93;100;94491.47;;;;
2021/02/04 00:25:17;;;;;;;1.15;0.85;;;;;;;7.93;100;94491.47;;;;
2021/02/04 00:26:18;;;;;;;1.15;0.85;;;;;;;7.93;100;94491.47;;;;
2021/02/04 00:27:18;;;;;;;1.15;0.85;;;;;;;7.93;100;94491.47;;;;
2021/02/04 00:28:19;;;;;;;1.15;0.85;;;;;;;7.93;100;94491.47;;;;
2021/02/04 00:29:20;;;;;;;1.65;0.8;;;;;;;8.12;100;94505.14;;;;
2021/02/04 00:30:21;;;;;;;1.65;0.8;;;;;;;8.12;100;94505.14;;;;
2021/02/04 00:31:24;;;;;;;1.65;0.8;;;;;;;8.12;100;94505.14;;;;
2021/02/04 00:32:25;;;;;;;1.65;0.8;;;;;;;8.12;100;94505.14;;;;
2021/02/04 00:33:26;;;;;;;1.65;0.8;;;;;;;8.12;100;94505.14;;;;
2021/02/04 00:34:26;;;;;;;1.65;0.8;;;;;;;8.12;100;94505.14;;;;
2021/02/04 00:35:27;;;;;;;1.65;0.8;;;;;;;8.12;100;94505.14;;;;
2021/02/04 00:36:27;;;;;;;1.65;0.8;;;;;;;8.12;100;94505.14;;;;
2021/02/04 00:37:28;;;;;;;1.65;0.8;;;;;;;8.12;100;94505.14;;;;
2021/02/04 00:38:29;;;;;;;1.65;0.8;;;;;;;8.12;100;94505.14;;;;
2021/02/04 00:39:29;;;;;;;1.65;0.8;;;;;;;8.12;100;94505.14;;;;
2021/02/04 00:40:30;;;;;;;1.5;0.9;;;;;;;8.24;100;94533.65;;;;
2021/02/04 00:41:31;;;;;;;1.5;0.9;;;;;;;8.24;100;94533.65;;;;
2021/02/04 00:42:31;;;;;;;1.5;0.9;;;;;;;8.24;100;94533.65;;;;
2021/02/04 00:43:32;;;;;;;1.5;0.9;;;;;;;8.24;100;94533.65;;;;
2021/02/04 00:44:32;;;;;;;1.5;0.9;;;;;;;8.24;100;94533.65;;;;
2021/02/04 00:45:33;;;;;;;1.5;0.9;;;;;;;8.24;100;94533.65;;;;
2021/02/04 00:46:34;;;;;;;1.5;0.9;;;;;;;8.24;100;94533.65;;;;
2021/02/04 00:47:34;;;;;;;1.5;0.9;;;;;;;8.24;100;94533.65;;;;
2021/02/04 00:48:35;;;;;;;1.5;0.9;;;;;;;8.24;100;94533.65;;;;
2021/02/04 00:49:35;;;;;;;1.5;0.9;;;;;;;8.24;100;94533.65;;;;
2021/02/04 00:50:36;;;;;;;1.85;1;;;;;;;8.25;100;94550.2;;;;
2021/02/04 00:51:37;;;;;;;1.85;1;;;;;;;8.25;100;94550.2;;;;
2021/02/04 00:52:37;;;;;;;1.85;1;;;;;;;8.25;100;94550.2;;;;
2021/02/04 00:53:38;;;;;;;1.85;1;;;;;;;8.25;100;94550.2;;;;
2021/02/04 00:54:39;;;;;;;1.85;1;;;;;;;8.25;100;94550.2;;;;
2021/02/04 00:55:39;;;;;;;1.85;1;;;;;;;8.25;100;94550.2;;;;
2021/02/04 00:56:40;;;;;;;1.85;1;;;;;;;8.25;100;94550.2;;;;
2021/02/04 00:57:40;;;;;;;1.85;1;;;;;;;8.25;100;94550.2;;;;
2021/02/04 00:58:41;;;;;;;1.85;1;;;;;;;8.25;100;94550.2;;;;
2021/02/04 00:59:41;;;;;;;1.85;1;;;;;;;8.25;100;94550.2;;;;
2021/02/04 01:00:42;;;;;;;1.85;1;;;;;;;8.25;100;94550.2;;;;
2021/02/04 01:01:42;;;;;;;1.75;0.9;;;;;;;8.1;100;94567.22;;;;
2021/02/04 01:02:43;;;;;;;1.75;0.9;;;;;;;8.1;100;94567.22;;;;
2021/02/04 01:03:44;;;;;;;1.75;0.9;;;;;;;8.1;100;94567.22;;;;
2021/02/04 01:04:44;;;;;;;1.75;0.9;;;;;;;8.1;100;94567.22;;;;
2021/02/04 01:05:45;;;;;;;1.75;0.9;;;;;;;8.1;100;94567.22;;;;
2021/02/04 01:06:45;;;;;;;1.75;0.9;;;;;;;8.1;100;94567.22;;;;
2021/02/04 01:07:46;;;;;;;1.75;0.9;;;;;;;8.1;100;94567.22;;;;
2021/02/04 01:08:46;;;;;;;1.75;0.9;;;;;;;8.1;100;94567.22;;;;
2021/02/04 01:09:47;;;;;;;1.75;0.9;;;;;;;8.1;100;94567.22;;;;
2021/02/04 01:10:47;;;;;;;1.75;0.9;;;;;;;8.1;100;94567.22;;;;
2021/02/04 01:11:48;;;;;;;1.55;0.8;;;;;;;7.9;100;94603.49;;;;
2021/02/04 01:12:48;;;;;;;1.55;0.8;;;;;;;7.9;100;94603.49;;;;
2021/02/04 01:13:49;;;;;;;1.55;0.8;;;;;;;7.9;100;94603.49;;;;
2021/02/04 01:14:49;;;;;;;1.55;0.8;;;;;;;7.9;100;94603.49;;;;
2021/02/04 01:15:51;;;;;;;1.55;0.8;;;;;;;7.9;100;94603.49;;;;
2021/02/04 01:16:51;;;;;;;1.55;0.8;;;;;;;7.9;100;94603.49;;;;
2021/02/04 01:17:52;;;;;;;1.55;0.8;;;;;;;7.9;100;94603.49;;;;
2021/02/04 01:18:54;;;;;;;1.55;0.8;;;;;;;7.9;100;94603.49;;;;
2021/02/04 01:19:55;;;;;;;1.55;0.8;;;;;;;7.9;100;94603.49;;;;
2021/02/04 01:20:55;;;;;;;1.55;0.8;;;;;;;7.9;100;94603.49;;;;
2021/02/04 01:21:56;;;;;;;1.55;0.8;;;;;;;7.9;100;94603.49;;;;
2021/02/04 01:22:57;;;;;;;1.1;1;;;;;;;7.83;100;94616.77;;;;
2021/02/04 01:23:58;;;;;;;1.1;1;;;;;;;7.83;100;94616.77;;;;
2021/02/04 01:24:58;;;;;;;1.1;1;;;;;;;7.83;100;94616.77;;;;
2021/02/04 01:25:59;;;;;;;1.1;1;;;;;;;7.83;100;94616.77;;;;
2021/02/04 01:27:00;;;;;;;1.1;1;;;;;;;7.83;100;94616.77;;;;
2021/02/04 01:28:00;;;;;;;1.1;1;;;;;;;7.83;100;94616.77;;;;
2021/02/04 01:29:05;;;;;;;1.1;1;;;;;;;7.83;100;94616.77;;;;
2021/02/04 01:30:06;;;;;;;1.1;1;;;;;;;7.83;100;94616.77;;;;
2021/02/04 01:31:07;;;;;;;1.1;1;;;;;;;7.83;100;94616.77;;;;
2021/02/04 01:32:08;;;;;;;1.1;1;;;;;;;7.83;100;94616.77;;;;
2021/02/04 01:33:08;;;;;;;1.4;0.9;;;;;;;7.86;100;94626.09;;;;
2021/02/04 01:34:08;;;;;;;1.4;0.9;;;;;;;7.86;100;94626.09;;;;
2021/02/04 01:35:09;;;;;;;1.4;0.9;;;;;;;7.86;100;94626.09;;;;
2021/02/04 01:36:10;;;;;;;1.4;0.9;;;;;;;7.86;100;94626.09;;;;
2021/02/04 01:37:11;;;;;;;1.4;0.9;;;;;;;7.86;100;94626.09;;;;
2021/02/04 01:38:11;;;;;;;1.4;0.9;;;;;;;7.86;100;94626.09;;;;
2021/02/04 01:39:12;;;;;;;1.4;0.9;;;;;;;7.86;100;94626.09;;;;
2021/02/04 01:40:13;;;;;;;1.4;0.9;;;;;;;7.86;100;94626.09;;;;
2021/02/04 01:41:13;;;;;;;1.4;0.9;;;;;;;7.86;100;94626.09;;;;
2021/02/04 01:42:14;;;;;;;1.4;0.9;;;;;;;7.86;100;94626.09;;;;
2021/02/04 01:43:15;;;;;;;1.4;0.9;;;;;;;7.86;100;94626.09;;;;
2021/02/04 01:44:16;;;;;;;2.05;0.8;;;;;;;7.98;100;94666;;;;
2021/02/04 01:45:16;;;;;;;2.05;0.8;;;;;;;7.98;100;94666;;;;
2021/02/04 01:46:17;;;;;;;2.05;0.8;;;;;;;7.98;100;94666;;;;
2021/02/04 01:47:17;;;;;;;2.05;0.8;;;;;;;7.98;100;94666;;;;
2021/02/04 01:48:18;;;;;;;2.05;0.8;;;;;;;7.98;100;94666;;;;
2021/02/04 01:49:18;;;;;;;2.05;0.8;;;;;;;7.98;100;94666;;;;
2021/02/04 01:50:19;;;;;;;2.05;0.8;;;;;;;7.98;100;94666;;;;
2021/02/04 01:51:21;;;;;;;2.05;0.8;;;;;;;7.98;100;94666;;;;
2021/02/04 01:52:22;;;;;;;2.05;0.8;;;;;;;7.98;100;94666;;;;
2021/02/04 01:53:22;;;;;;;2.05;0.8;;;;;;;7.98;100;94666;;;;
2021/02/04 01:54:23;;;;;;;2.05;0.8;;;;;;;7.98;100;94666;;;;
2021/02/04 01:55:23;;;;;;;1.6;0.9;;;;;;;8.05;100;94667.11;;;;
2021/02/04 01:56:24;;;;;;;1.6;0.9;;;;;;;8.05;100;94667.11;;;;
2021/02/04 01:57:25;;;;;;;1.6;0.9;;;;;;;8.05;100;94667.11;;;;
2021/02/04 01:58:25;;;;;;;1.6;0.9;;;;;;;8.05;100;94667.11;;;;
2021/02/04 01:59:26;;;;;;;1.6;0.9;;;;;;;8.05;100;94667.11;;;;
2021/02/04 02:00:26;;;;;;;1.6;0.9;;;;;;;8.05;100;94667.11;;;;
2021/02/04 02:01:27;;;;;;;1.6;0.9;;;;;;;8.05;100;94667.11;;;;
2021/02/04 02:02:28;;;;;;;1.6;0.9;;;;;;;8.05;100;94667.11;;;;
2021/02/04 02:03:29;;;;;;;1.6;0.9;;;;;;;8.05;100;94667.11;;;;
2021/02/04 02:04:29;;;;;;;1.6;0.9;;;;;;;8.05;100;94667.11;;;;
2021/02/04 02:05:30;;;;;;;1.1;0.6;;;;;;;8.02;100;94687.75;;;;
2021/02/04 02:06:30;;;;;;;1.1;0.6;;;;;;;8.02;100;94687.75;;;;
2021/02/04 02:07:31;;;;;;;1.1;0.6;;;;;;;8.02;100;94687.75;;;;
2021/02/04 02:08:31;;;;;;;1.1;0.6;;;;;;;8.02;100;94687.75;;;;
2021/02/04 02:09:34;;;;;;;1.1;0.6;;;;;;;8.02;100;94687.75;;;;
2021/02/04 02:10:35;;;;;;;1.1;0.6;;;;;;;8.02;100;94687.75;;;;
2021/02/04 02:11:35;;;;;;;1.1;0.6;;;;;;;8.02;100;94687.75;;;;
2021/02/04 02:12:36;;;;;;;1.1;0.6;;;;;;;8.02;100;94687.75;;;;
2021/02/04 02:13:36;;;;;;;1.1;0.6;;;;;;;8.02;100;94687.75;;;;
2021/02/04 02:14:37;;;;;;;1.1;0.6;;;;;;;8.02;100;94687.75;;;;
2021/02/04 02:15:37;;;;;;;1.1;0.6;;;;;;;8.02;100;94687.75;;;;
2021/02/04 02:16:38;;;;;;;0.6;0.6;;;;;;;8.07;100;94718.36;;;;
2021/02/04 02:17:38;;;;;;;0.6;0.6;;;;;;;8.07;100;94718.36;;;;
2021/02/04 02:18:39;;;;;;;0.6;0.6;;;;;;;8.07;100;94718.36;;;;
2021/02/04 02:19:39;;;;;;;0.6;0.6;;;;;;;8.07;100;94718.36;;;;
2021/02/04 02:20:40;;;;;;;0.6;0.6;;;;;;;8.07;100;94718.36;;;;
2021/02/04 02:21:40;;;;;;;0.6;0.6;;;;;;;8.07;100;94718.36;;;;
2021/02/04 02:22:41;;;;;;;0.6;0.6;;;;;;;8.07;100;94718.36;;;;
2021/02/04 02:23:42;;;;;;;0.6;0.6;;;;;;;8.07;100;94718.36;;;;
2021/02/04 02:24:42;;;;;;;0.6;0.6;;;;;;;8.07;100;94718.36;;;;
2021/02/04 02:25:43;;;;;;;0.6;0.6;;;;;;;8.07;100;94718.36;;;;
2021/02/04 02:26:43;;;;;;;1.5;0.8;;;;;;;8.04;100;94712.13;;;;
2021/02/04 02:27:44;;;;;;;1.5;0.8;;;;;;;8.04;100;94712.13;;;;
2021/02/04 02:28:45;;;;;;;1.5;0.8;;;;;;;8.04;100;94712.13;;;;
2021/02/04 02:29:45;;;;;;;1.5;0.8;;;;;;;8.04;100;94712.13;;;;
2021/02/04 02:30:46;;;;;;;1.5;0.8;;;;;;;8.04;100;94712.13;;;;
2021/02/04 02:31:46;;;;;;;1.5;0.8;;;;;;;8.04;100;94712.13;;;;
2021/02/04 02:32:47;;;;;;;1.5;0.8;;;;;;;8.04;100;94712.13;;;;
2021/02/04 02:33:47;;;;;;;1.5;0.8;;;;;;;8.04;100;94712.13;;;;
2021/02/04 02:34:48;;;;;;;1.5;0.8;;;;;;;8.04;100;94712.13;;;;
2021/02/04 02:35:48;;;;;;;1.5;0.8;;;;;;;8.04;100;94712.13;;;;
2021/02/04 02:36:49;;;;;;;1.5;0.8;;;;;;;8.04;100;94712.13;;;;
2021/02/04 02:37:49;;;;;;;1.7;0.7;;;;;;;7.72;100;94739.84;;;;
2021/02/04 02:38:50;;;;;;;1.7;0.7;;;;;;;7.72;100;94739.84;;;;
2021/02/04 02:39:51;;;;;;;1.7;0.7;;;;;;;7.72;100;94739.84;;;;
2021/02/04 02:40:51;;;;;;;1.7;0.7;;;;;;;7.72;100;94739.84;;;;
2021/02/04 02:41:55;;;;;;;1.7;0.7;;;;;;;7.72;100;94739.84;;;;
2021/02/04 02:42:55;;;;;;;1.7;0.7;;;;;;;7.72;100;94739.84;;;;
2021/02/04 02:43:56;;;;;;;1.7;0.7;;;;;;;7.72;100;94739.84;;;;
2021/02/04 02:44:56;;;;;;;1.7;0.7;;;;;;;7.72;100;94739.84;;;;
2021/02/04 02:45:57;;;;;;;1.7;0.7;;;;;;;7.72;100;94739.84;;;;
2021/02/04 02:46:57;;;;;;;1.7;0.7;;;;;;;7.72;100;94739.84;;;;
2021/02/04 02:47:58;;;;;;;1;0.7;;;;;;;7.41;100;94762.84;;;;
2021/02/04 02:48:59;;;;;;;1;0.7;;;;;;;7.41;100;94762.84;;;;
2021/02/04 02:49:59;;;;;;;1;0.7;;;;;;;7.41;100;94762.84;;;;
2021/02/04 02:51:00;;;;;;;1;0.7;;;;;;;7.41;100;94762.84;;;;
2021/02/04 02:52:01;;;;;;;1;0.7;;;;;;;7.41;100;94762.84;;;;
2021/02/04 02:53:01;;;;;;;1;0.7;;;;;;;7.41;100;94762.84;;;;
2021/02/04 02:54:02;;;;;;;1;0.7;;;;;;;7.41;100;94762.84;;;;
2021/02/04 02:55:03;;;;;;;1;0.7;;;;;;;7.41;100;94762.84;;;;
2021/02/04 02:56:05;;;;;;;1;0.7;;;;;;;7.41;100;94762.84;;;;
2021/02/04 02:57:05;;;;;;;1;0.7;;;;;;;7.41;100;94762.84;;;;
2021/02/04 02:58:06;;;;;;;1;0.7;;;;;;;7.41;100;94762.84;;;;
2021/02/04 02:59:06;;;;;;;1;0.6;;;;;;;7.19;100;94753.27;;;;
2021/02/04 03:00:07;;;;;;;1;0.6;;;;;;;7.19;100;94753.27;;;;
2021/02/04 03:01:10;;;;;;;1;0.6;;;;;;;7.19;100;94753.27;;;;
2021/02/04 03:02:11;;;;;;;1;0.6;;;;;;;7.19;100;94753.27;;;;
2021/02/04 03:03:11;;;;;;;1;0.6;;;;;;;7.19;100;94753.27;;;;
2021/02/04 03:04:12;;;;;;;1;0.6;;;;;;;7.19;100;94753.27;;;;
2021/02/04 03:05:12;;;;;;;1;0.6;;;;;;;7.19;100;94753.27;;;;
2021/02/04 03:06:13;;;;;;;1;0.6;;;;;;;7.19;100;94753.27;;;;
2021/02/04 03:07:13;;;;;;;1;0.6;;;;;;;7.19;100;94753.27;;;;
2021/02/04 03:08:14;;;;;;;1;0.6;;;;;;;7.19;100;94753.27;;;;
2021/02/04 03:09:14;;;;;;;0.7;0.6;;;;;;;7.05;100;94774.22;;;;
2021/02/04 03:10:15;;;;;;;0.7;0.6;;;;;;;7.05;100;94774.22;;;;
2021/02/04 03:11:17;;;;;;;0.7;0.6;;;;;;;7.05;100;94774.22;;;;
2021/02/04 03:12:17;;;;;;;0.7;0.6;;;;;;;7.05;100;94774.22;;;;
2021/02/04 03:13:18;;;;;;;0.7;0.6;;;;;;;7.05;100;94774.22;;;;
2021/02/04 03:14:18;;;;;;;0.7;0.6;;;;;;;7.05;100;94774.22;;;;
2021/02/04 03:15:19;;;;;;;0.7;0.6;;;;;;;7.05;100;94774.22;;;;
2021/02/04 03:16:19;;;;;;;0.7;0.6;;;;;;;7.05;100;94774.22;;;;
2021/02/04 03:17:20;;;;;;;0.7;0.6;;;;;;;7.05;100;94774.22;;;;
2021/02/04 03:18:21;;;;;;;0.7;0.6;;;;;;;7.05;100;94774.22;;;;
2021/02/04 03:19:21;;;;;;;0.7;0.6;;;;;;;7.05;100;94774.22;;;;
2021/02/04 03:20:22;;;;;;;1;0.7;;;;;;;6.89;100;94786.78;;;;
2021/02/04 03:21:22;;;;;;;1;0.7;;;;;;;6.89;100;94786.78;;;;
2021/02/04 03:22:23;;;;;;;1;0.7;;;;;;;6.89;100;94786.78;;;;
2021/02/04 03:23:23;;;;;;;1;0.7;;;;;;;6.89;100;94786.78;;;;
2021/02/04 03:24:24;;;;;;;1;0.7;;;;;;;6.89;100;94786.78;;;;
2021/02/04 03:25:24;;;;;;;1;0.7;;;;;;;6.89;100;94786.78;;;;
2021/02/04 03:26:25;;;;;;;1;0.7;;;;;;;6.89;100;94786.78;;;;
2021/02/04 03:27:26;;;;;;;1;0.7;;;;;;;6.89;100;94786.78;;;;
2021/02/04 03:28:26;;;;;;;1;0.7;;;;;;;6.89;100;94786.78;;;;
2021/02/04 03:29:27;;;;;;;1;0.7;;;;;;;6.89;100;94786.78;;;;
2021/02/04 03:30:27;;;;;;;1.3;0.7;;;;;;;6.76;100;94793.77;;;;
2021/02/04 03:31:28;;;;;;;1.3;0.7;;;;;;;6.76;100;94793.77;;;;
2021/02/04 03:32:28;;;;;;;1.3;0.7;;;;;;;6.76;100;94793.77;;;;
2021/02/04 03:33:29;;;;;;;1.3;0.7;;;;;;;6.76;100;94793.77;;;;
2021/02/04 03:34:29;;;;;;;1.3;0.7;;;;;;;6.76;100;94793.77;;;;
2021/02/04 03:35:30;;;;;;;1.3;0.7;;;;;;;6.76;100;94793.77;;;;
2021/02/04 03:36:30;;;;;;;1.3;0.7;;;;;;;6.76;100;94793.77;;;;
2021/02/04 03:37:31;;;;;;;1.3;0.7;;;;;;;6.76;100;94793.77;;;;
2021/02/04 03:38:31;;;;;;;1.3;0.7;;;;;;;6.76;100;94793.77;;;;
2021/02/04 03:39:32;;;;;;;1.3;0.7;;;;;;;6.76;100;94793.77;;;;
2021/02/04 03:40:32;;;;;;;1.3;0.7;;;;;;;6.76;100;94793.77;;;;
2021/02/04 03:41:33;;;;;;;0.85;0.7;;;;;;;6.6;100;94797.88;;;;
2021/02/04 03:42:33;;;;;;;0.85;0.7;;;;;;;6.6;100;94797.88;;;;
2021/02/04 03:43:34;;;;;;;0.85;0.7;;;;;;;6.6;100;94797.88;;;;
2021/02/04 03:44:35;;;;;;;0.85;0.7;;;;;;;6.6;100;94797.88;;;;
2021/02/04 03:45:35;;;;;;;0.85;0.7;;;;;;;6.6;100;94797.88;;;;
2021/02/04 03:46:36;;;;;;;0.85;0.7;;;;;;;6.6;100;94797.88;;;;
2021/02/04 03:47:36;;;;;;;0.85;0.7;;;;;;;6.6;100;94797.88;;;;
2021/02/04 03:48:37;;;;;;;0.85;0.7;;;;;;;6.6;100;94797.88;;;;
2021/02/04 03:49:38;;;;;;;0.85;0.7;;;;;;;6.6;100;94797.88;;;;
2021/02/04 03:50:38;;;;;;;0.85;0.7;;;;;;;6.6;100;94797.88;;;;
2021/02/04 03:51:39;;;;;;;0.85;0.7;;;;;;;6.6;100;94797.88;;;;
2021/02/04 03:52:40;;;;;;;0.7;0.5;;;;;;;6.48;100;94828.74;;;;
2021/02/04 03:53:49;;;;;;;0.7;0.5;;;;;;;6.48;100;94828.74;;;;
2021/02/04 03:54:50;;;;;;;0.7;0.5;;;;;;;6.48;100;94828.74;;;;
2021/02/04 03:55:50;;;;;;;0.7;0.5;;;;;;;6.48;100;94828.74;;;;
2021/02/04 03:56:51;;;;;;;0.7;0.5;;;;;;;6.48;100;94828.74;;;;
2021/02/04 03:57:52;;;;;;;0.7;0.5;;;;;;;6.48;100;94828.74;;;;
2021/02/04 03:58:52;;;;;;;0.7;0.5;;;;;;;6.48;100;94828.74;;;;
2021/02/04 03:59:53;;;;;;;0.7;0.5;;;;;;;6.48;100;94828.74;;;;
2021/02/04 04:00:53;;;;;;;0.7;0.5;;;;;;;6.48;100;94828.74;;;;
2021/02/04 04:01:54;;;;;;;0.7;0.5;;;;;;;6.48;100;94828.74;;;;
2021/02/04 04:02:54;;;;;;;0.5;0.5;;;;;;;6.34;100;94851.76;;;;
2021/02/04 04:03:55;;;;;;;0.5;0.5;;;;;;;6.34;100;94851.76;;;;
2021/02/04 04:04:56;;;;;;;0.5;0.5;;;;;;;6.34;100;94851.76;;;;
2021/02/04 04:05:56;;;;;;;0.5;0.5;;;;;;;6.34;100;94851.76;;;;
2021/02/04 04:06:57;;;;;;;0.5;0.5;;;;;;;6.34;100;94851.76;;;;
2021/02/04 04:07:57;;;;;;;0.5;0.5;;;;;;;6.34;100;94851.76;;;;
2021/02/04 04:08:58;;;;;;;0.5;0.5;;;;;;;6.34;100;94851.76;;;;
2021/02/04 04:09:58;;;;;;;0.5;0.5;;;;;;;6.34;100;94851.76;;;;
2021/02/04 04:10:58;;;;;;;0.5;0.5;;;;;;;6.34;100;94851.76;;;;
2021/02/04 04:11:59;;;;;;;0.5;0.5;;;;;;;6.34;100;94851.76;;;;
2021/02/04 04:13:00;;;;;;;0.5;0.5;;;;;;;6.34;100;94851.76;;;;
2021/02/04 04:14:00;;;;;;;0.45;0.45;;;;;;;6.13;100;94869.17;;;;
2021/02/04 04:15:01;;;;;;;0.45;0.45;;;;;;;6.13;100;94869.17;;;;
2021/02/04 04:16:04;;;;;;;0.45;0.45;;;;;;;6.13;100;94869.17;;;;
2021/02/04 04:17:05;;;;;;;0.45;0.45;;;;;;;6.13;100;94869.17;;;;
2021/02/04 04:18:05;;;;;;;0.45;0.45;;;;;;;6.13;100;94869.17;;;;
2021/02/04 04:19:06;;;;;;;0.45;0.45;;;;;;;6.13;100;94869.17;;;;
2021/02/04 04:20:07;;;;;;;0.45;0.45;;;;;;;6.13;100;94869.17;;;;
2021/02/04 04:21:09;;;;;;;0.45;0.45;;;;;;;6.13;100;94869.17;;;;
2021/02/04 04:22:10;;;;;;;0.45;0.45;;;;;;;6.13;100;94869.17;;;;
2021/02/04 04:23:10;;;;;;;0.45;0.45;;;;;;;6.13;100;94869.17;;;;
2021/02/04 04:24:11;;;;;;;0.75;0.65;;;;;;;5.73;100;94884.17;;;;
2021/02/04 04:25:11;;;;;;;0.75;0.65;;;;;;;5.73;100;94884.17;;;;
2021/02/04 04:26:12;;;;;;;0.75;0.65;;;;;;;5.73;100;94884.17;;;;
2021/02/04 04:27:12;;;;;;;0.75;0.65;;;;;;;5.73;100;94884.17;;;;
2021/02/04 04:28:13;;;;;;;0.75;0.65;;;;;;;5.73;100;94884.17;;;;
2021/02/04 04:29:13;;;;;;;0.75;0.65;;;;;;;5.73;100;94884.17;;;;
2021/02/04 04:30:14;;;;;;;0.75;0.65;;;;;;;5.73;100;94884.17;;;;
2021/02/04 04:31:15;;;;;;;0.75;0.65;;;;;;;5.73;100;94884.17;;;;
2021/02/04 04:32:16;;;;;;;0.75;0.65;;;;;;;5.73;100;94884.17;;;;
2021/02/04 04:33:16;;;;;;;0.75;0.65;;;;;;;5.73;100;94884.17;;;;
2021/02/04 04:34:17;;;;;;;0.75;0.65;;;;;;;5.73;100;94884.17;;;;
2021/02/04 04:35:17;;;;;;;1.4;0.6;;;;;;;5.32;100;94883.8;;;;
2021/02/04 04:36:18;;;;;;;1.4;0.6;;;;;;;5.32;100;94883.8;;;;
2021/02/04 04:37:18;;;;;;;1.4;0.6;;;;;;;5.32;100;94883.8;;;;
2021/02/04 04:38:19;;;;;;;1.4;0.6;;;;;;;5.32;100;94883.8;;;;
2021/02/04 04:39:19;;;;;;;1.4;0.6;;;;;;;5.32;100;94883.8;;;;
2021/02/04 04:40:20;;;;;;;1.4;0.6;;;;;;;5.32;100;94883.8;;;;
2021/02/04 04:41:20;;;;;;;1.4;0.6;;;;;;;5.32;100;94883.8;;;;
2021/02/04 04:42:21;;;;;;;1.4;0.6;;;;;;;5.32;100;94883.8;;;;
2021/02/04 04:43:21;;;;;;;1.4;0.6;;;;;;;5.32;100;94883.8;;;;
2021/02/04 04:44:22;;;;;;;1.4;0.6;;;;;;;5.32;100;94883.8;;;;
2021/02/04 04:45:23;;;;;;;1.4;0.7;;;;;;;4.91;100;94897.66;;;;
2021/02/04 04:46:23;;;;;;;1.4;0.7;;;;;;;4.91;100;94897.66;;;;
2021/02/04 04:47:24;;;;;;;1.4;0.7;;;;;;;4.91;100;94897.66;;;;
2021/02/04 04:48:24;;;;;;;1.4;0.7;;;;;;;4.91;100;94897.66;;;;
2021/02/04 04:49:25;;;;;;;1.4;0.7;;;;;;;4.91;100;94897.66;;;;
2021/02/04 04:50:26;;;;;;;1.4;0.7;;;;;;;4.91;100;94897.66;;;;
2021/02/04 04:51:27;;;;;;;1.4;0.7;;;;;;;4.91;100;94897.66;;;;
2021/02/04 04:52:27;;;;;;;1.4;0.7;;;;;;;4.91;100;94897.66;;;;
2021/02/04 04:53:28;;;;;;;1.4;0.7;;;;;;;4.91;100;94897.66;;;;
2021/02/04 04:54:28;;;;;;;1.4;0.7;;;;;;;4.91;100;94897.66;;;;
2021/02/04 04:55:28;;;;;;;1.4;0.7;;;;;;;4.91;100;94897.66;;;;
2021/02/04 04:56:29;;;;;;;0.55;0.55;;;;;;;4.6;100;94920.15;;;;
2021/02/04 04:57:32;;;;;;;0.55;0.55;;;;;;;4.6;100;94920.15;;;;
2021/02/04 04:58:32;;;;;;;0.55;0.55;;;;;;;4.6;100;94920.15;;;;
2021/02/04 04:59:36;;;;;;;0.55;0.55;;;;;;;4.6;100;94920.15;;;;
2021/02/04 05:00:36;;;;;;;0.55;0.55;;;;;;;4.6;100;94920.15;;;;
2021/02/04 05:01:37;;;;;;;0.55;0.55;;;;;;;4.6;100;94920.15;;;;
2021/02/04 05:02:40;;;;;;;0.55;0.55;;;;;;;4.6;100;94920.15;;;;
2021/02/04 05:03:47;;;;;;;0.55;0.55;;;;;;;4.6;100;94920.15;;;;
2021/02/04 05:04:47;;;;;;;0.55;0.55;;;;;;;4.6;100;94920.15;;;;
2021/02/04 05:05:51;;;;;;;0.55;0.55;;;;;;;4.6;100;94920.15;;;;
2021/02/04 05:06:52;;;;;;;0.9;0.6;;;;;;;4.35;100;94924.46;;;;
2021/02/04 05:08:04;;;;;;;0.9;0.6;;;;;;;4.35;100;94924.46;;;;
2021/02/04 05:09:10;;;;;;;0.9;0.6;;;;;;;4.35;100;94924.46;;;;
2021/02/04 05:10:11;;;;;;;0.9;0.6;;;;;;;4.35;100;94924.46;;;;
2021/02/04 05:11:13;;;;;;;0.9;0.6;;;;;;;4.35;100;94924.46;;;;
2021/02/04 05:12:15;;;;;;;0.9;0.6;;;;;;;4.35;100;94924.46;;;;
2021/02/04 05:13:17;;;;;;;0.9;0.6;;;;;;;4.35;100;94924.46;;;;
2021/02/04 05:14:18;;;;;;;0.9;0.6;;;;;;;4.35;100;94924.46;;;;
2021/02/04 05:15:19;;;;;;;0.9;0.6;;;;;;;4.35;100;94924.46;;;;
2021/02/04 05:16:20;;;;;;;0.9;0.6;;;;;;;4.35;100;94924.46;;;;
2021/02/04 05:17:21;;;;;;;1.4;0.85;;;;;;;4.09;100;94932.5;;;;
2021/02/04 05:18:24;;;;;;;1.4;0.85;;;;;;;4.09;100;94932.5;;;;
2021/02/04 05:19:24;;;;;;;1.4;0.85;;;;;;;4.09;100;94932.5;;;;
2021/02/04 05:20:25;;;;;;;1.4;0.85;;;;;;;4.09;100;94932.5;;;;
2021/02/04 05:21:26;;;;;;;1.4;0.85;;;;;;;4.09;100;94932.5;;;;
2021/02/04 05:22:27;;;;;;;1.4;0.85;;;;;;;4.09;100;94932.5;;;;
2021/02/04 05:23:28;;;;;;;1.4;0.85;;;;;;;4.09;100;94932.5;;;;
2021/02/04 05:24:33;;;;;;;1.4;0.85;;;;;;;4.09;100;94932.5;;;;
2021/02/04 05:25:34;;;;;;;1.4;0.85;;;;;;;4.09;100;94932.5;;;;
2021/02/04 05:26:34;;;;;;;1.4;0.85;;;;;;;4.09;100;94932.5;;;;
2021/02/04 05:27:34;;;;;;;1.4;0.85;;;;;;;4.09;100;94932.5;;;;
2021/02/04 05:28:36;;;;;;;0.65;0.65;;;;;;;3.72;100;94948.56;;;;
2021/02/04 05:29:36;;;;;;;0.65;0.65;;;;;;;3.72;100;94948.56;;;;
2021/02/04 05:30:37;;;;;;;0.65;0.65;;;;;;;3.72;100;94948.56;;;;
2021/02/04 05:31:38;;;;;;;0.65;0.65;;;;;;;3.72;100;94948.56;;;;
2021/02/04 05:32:41;;;;;;;0.65;0.65;;;;;;;3.72;100;94948.56;;;;
2021/02/04 05:33:43;;;;;;;0.65;0.65;;;;;;;3.72;100;94948.56;;;;
2021/02/04 05:34:46;;;;;;;0.65;0.65;;;;;;;3.72;100;94948.56;;;;
2021/02/04 05:35:48;;;;;;;0.65;0.65;;;;;;;3.72;100;94948.56;;;;
2021/02/04 05:36:50;;;;;;;0.65;0.65;;;;;;;3.72;100;94948.56;;;;
2021/02/04 05:37:53;;;;;;;0.65;0.65;;;;;;;3.72;100;94948.56;;;;
2021/02/04 05:38:53;;;;;;;1.6;0.9;;;;;;;3.35;100;94957.09;;;;
2021/02/04 05:39:56;;;;;;;1.6;0.9;;;;;;;3.35;100;94957.09;;;;
2021/02/04 05:40:58;;;;;;;1.6;0.9;;;;;;;3.35;100;94957.09;;;;
2021/02/04 05:41:58;;;;;;;1.6;0.9;;;;;;;3.35;100;94957.09;;;;
2021/02/04 05:43:01;;;;;;;1.6;0.9;;;;;;;3.35;100;94957.09;;;;
2021/02/04 05:44:08;;;;;;;1.6;0.9;;;;;;;3.35;100;94957.09;;;;
2021/02/04 05:45:11;;;;;;;1.6;0.9;;;;;;;3.35;100;94957.09;;;;
2021/02/04 05:46:15;;;;;;;1.6;0.9;;;;;;;3.35;100;94957.09;;;;
2021/02/04 05:47:21;;;;;;;1.6;0.9;;;;;;;3.35;100;94957.09;;;;
2021/02/04 05:48:28;;;;;;;1.6;0.9;;;;;;;3.35;100;94957.09;;;;
2021/02/04 05:49:31;;;;;;;1.05;0.8;;;;;;;3.19;100;94964.6;;;;
2021/02/04 05:50:33;;;;;;;1.05;0.8;;;;;;;3.19;100;94964.6;;;;
2021/02/04 05:51:34;;;;;;;1.05;0.8;;;;;;;3.19;100;94964.6;;;;
2021/02/04 05:52:36;;;;;;;1.05;0.8;;;;;;;3.19;100;94964.6;;;;
2021/02/04 05:53:39;;;;;;;1.05;0.8;;;;;;;3.19;100;94964.6;;;;
2021/02/04 05:54:40;;;;;;;1.05;0.8;;;;;;;3.19;100;94964.6;;;;
2021/02/04 05:55:42;;;;;;;1.05;0.8;;;;;;;3.19;100;94964.6;;;;
2021/02/04 05:56:42;;;;;;;1.05;0.8;;;;;;;3.19;100;94964.6;;;;
2021/02/04 05:57:43;;;;;;;1.05;0.8;;;;;;;3.19;100;94964.6;;;;
2021/02/04 05:58:44;;;;;;;1.05;0.8;;;;;;;3.19;100;94964.6;;;;
2021/02/04 05:59:46;;;;;;;1.05;0.8;;;;;;;3.19;100;94964.6;;;;
2021/02/04 06:00:46;;;;;;;1;0.8;;;;;;;3.18;100;94975.81;;;;
2021/02/04 06:01:47;;;;;;;1;0.8;;;;;;;3.18;100;94975.81;;;;
2021/02/04 06:02:49;;;;;;;1;0.8;;;;;;;3.18;100;94975.81;;;;
2021/02/04 06:03:51;;;;;;;1;0.8;;;;;;;3.18;100;94975.81;;;;
2021/02/04 06:04:53;;;;;;;1;0.8;;;;;;;3.18;100;94975.81;;;;
2021/02/04 06:05:54;;;;;;;1;0.8;;;;;;;3.18;100;94975.81;;;;
2021/02/04 06:06:57;;;;;;;1;0.8;;;;;;;3.18;100;94975.81;;;;
2021/02/04 06:08:01;;;;;;;1;0.8;;;;;;;3.18;100;94975.81;;;;
2021/02/04 06:09:01;;;;;;;1;0.8;;;;;;;3.18;100;94975.81;;;;
2021/02/04 06:10:03;;;;;;;1;0.8;;;;;;;3.18;100;94975.81;;;;
2021/02/04 06:11:08;;;;;;;3.55;1.1;;;;;;;3.3;100;94977.37;;;;
2021/02/04 06:12:08;;;;;;;3.55;1.1;;;;;;;3.3;100;94977.37;;;;
2021/02/04 06:13:10;;;;;;;3.55;1.1;;;;;;;3.3;100;94977.37;;;;
2021/02/04 06:14:17;;;;;;;3.55;1.1;;;;;;;3.3;100;94977.37;;;;
2021/02/04 06:15:18;;;;;;;3.55;1.1;;;;;;;3.3;100;94977.37;;;;
2021/02/04 06:16:24;;;;;;;3.55;1.1;;;;;;;3.3;100;94977.37;;;;
2021/02/04 06:17:24;;;;;;;3.55;1.1;;;;;;;3.3;100;94977.37;;;;
2021/02/04 06:18:29;;;;;;;3.55;1.1;;;;;;;3.3;100;94977.37;;;;
2021/02/04 06:19:30;;;;;;;3.55;1.1;;;;;;;3.3;100;94977.37;;;;
2021/02/04 06:20:32;;;;;;;3.55;1.1;;;;;;;3.3;100;94977.37;;;;
2021/02/04 06:21:36;;;;;;;2.2;1;;;;;;;3.48;100;94990.5;;;;
2021/02/04 06:22:41;;;;;;;2.2;1;;;;;;;3.48;100;94990.5;;;;
2021/02/04 06:23:44;;;;;;;2.2;1;;;;;;;3.48;100;94990.5;;;;
2021/02/04 06:24:53;;;;;;;2.2;1;;;;;;;3.48;100;94990.5;;;;
2021/02/04 06:26:06;;;;;;;2.2;1;;;;;;;3.48;100;94990.5;;;;
2021/02/04 06:27:06;;;;;;;2.2;1;;;;;;;3.48;100;94990.5;;;;
2021/02/04 06:28:09;;;;;;;2.2;1;;;;;;;3.48;100;94990.5;;;;
2021/02/04 06:29:18;;;;;;;2.2;1;;;;;;;3.48;100;94990.5;;;;
2021/02/04 06:30:19;;;;;;;2.2;1;;;;;;;3.48;100;94990.5;;;;
2021/02/04 06:31:23;;;;;;;2.2;1;;;;;;;3.48;100;94990.5;;;;